Time;durP1;ratioP1;P1;durP2;ratioP2;P2;SDS_P1;SDS_P2;PMS_P1;PMS_P2;Temp;Humidity;BMP_temperature;BMP_pressure;BME280_temperature;BME280_humidity;BME280_pressure;Samples;Min_cycle;Max_cycle;Signal;HPM_P1;HPM_P2
2023/05/10 00:01:14;;;;;;;39.42;25.15;;;;;;;;;;5044555;28;20838;-65
2023/05/10 00:03:40;;;;;;;38.38;26.50;;;;;;;;;;5044711;28;20074;-65
2023/05/10 00:06:05;;;;;;;32.78;24.95;;;;;;;;;;5045508;28;20993;-65
2023/05/10 00:08:30;;;;;;;40.55;28.15;;;;;;;;;;5041385;28;20312;-65
2023/05/10 00:10:56;;;;;;;39.20;26.67;;;;;;;;;;5042633;28;20455;-65
2023/05/10 00:13:21;;;;;;;36.97;27.67;;;;;;;;;;5037653;28;20868;-65
2023/05/10 00:15:46;;;;;;;41.42;25.13;;;;;;;;;;5045065;28;20077;-64
2023/05/10 00:18:12;;;;;;;40.70;28.88;;;;;;;;;;5035572;28;21682;-64
2023/05/10 00:20:37;;;;;;;40.92;30.13;;;;;;;;;;5035321;28;20137;-64
2023/05/10 00:23:02;;;;;;;39.80;29.67;;;;;;;;;;5032342;28;20127;-64
2023/05/10 00:25:28;;;;;;;47.72;31.33;;;;;;;;;;5039706;28;20039;-64
2023/05/10 00:27:55;;;;;;;40.38;29.33;;;;;;;;;;5037515;28;20123;-64
2023/05/10 00:30:20;;;;;;;57.33;32.40;;;;;;;;;;5029880;28;20031;-64
2023/05/10 00:32:45;;;;;;;69.97;38.63;;;;;;;;;;5043167;28;20036;-64
2023/05/10 00:35:11;;;;;;;38.38;30.38;;;;;;;;;;5033656;28;20846;-64
2023/05/10 00:37:36;;;;;;;35.83;30.75;;;;;;;;;;5045313;28;20028;-64
2023/05/10 00:40:01;;;;;;;51.97;32.60;;;;;;;;;;5044248;28;20031;-64
2023/05/10 00:42:27;;;;;;;40.17;31.02;;;;;;;;;;5042890;28;20938;-64
2023/05/10 00:44:52;;;;;;;55.05;34.53;;;;;;;;;;5034236;28;20024;-64
2023/05/10 00:47:17;;;;;;;42.50;31.35;;;;;;;;;;5038840;28;20901;-64
2023/05/10 00:49:43;;;;;;;43.00;32.05;;;;;;;;;;5038840;28;20055;-63
2023/05/10 00:52:08;;;;;;;48.35;34.20;;;;;;;;;;5044773;28;20024;-63
2023/05/10 00:54:34;;;;;;;43.80;35.10;;;;;;;;;;5034696;28;20129;-64
2023/05/10 00:56:59;;;;;;;64.47;35.83;;;;;;;;;;5043456;28;20062;-63
2023/05/10 00:59:24;;;;;;;39.38;29.98;;;;;;;;;;5041328;28;20144;-63
2023/05/10 01:01:51;;;;;;;41.05;33.70;;;;;;;;;;5043668;28;20081;-64
2023/05/10 01:04:16;;;;;;;42.13;31.35;;;;;;;;;;5037667;28;20020;-63
2023/05/10 01:06:42;;;;;;;33.50;29.65;;;;;;;;;;5043129;28;20027;-63
2023/05/10 01:09:07;;;;;;;34.10;29.45;;;;;;;;;;5043837;28;20961;-63
2023/05/10 01:11:34;;;;;;;39.67;29.23;;;;;;;;;;5042734;28;20040;-63
2023/05/10 01:14:00;;;;;;;42.92;31.02;;;;;;;;;;5036635;28;20020;-63
2023/05/10 01:16:26;;;;;;;42.95;30.23;;;;;;;;;;5038856;28;20063;-63
2023/05/10 01:18:52;;;;;;;38.78;29.98;;;;;;;;;;5043986;28;20034;-63
2023/05/10 01:21:23;;;;;;;37.80;30.13;;;;;;;;;;5044101;28;20789;-63
2023/05/10 01:23:51;;;;;;;33.67;28.95;;;;;;;;;;5034196;28;20028;-63
2023/05/10 01:26:28;;;;;;;34.53;29.95;;;;;;;;;;5038529;28;20500;-63
2023/05/10 01:29:14;;;;;;;32.63;27.85;;;;;;;;;;5044274;28;20032;-63
2023/05/10 01:31:58;;;;;;;33.95;28.75;;;;;;;;;;5006178;28;20033;-63
2023/05/10 01:34:25;;;;;;;29.67;25.95;;;;;;;;;;5040018;28;20040;-63
2023/05/10 01:37:19;;;;;;;39.25;31.38;;;;;;;;;;5041576;28;20860;-63
2023/05/10 01:39:47;;;;;;;30.73;27.08;;;;;;;;;;5031646;28;20028;-63
2023/05/10 01:42:21;;;;;;;32.85;26.75;;;;;;;;;;5043383;28;20032;-63
2023/05/10 01:44:53;;;;;;;36.15;27.58;;;;;;;;;;5043471;28;20016;-64
2023/05/10 01:47:28;;;;;;;30.73;24.67;;;;;;;;;;5046070;28;20059;-63
2023/05/10 01:49:55;;;;;;;32.47;26.73;;;;;;;;;;5036669;28;20016;-63
2023/05/10 01:52:25;;;;;;;30.35;24.92;;;;;;;;;;5040031;28;20032;-63
2023/05/10 01:54:55;;;;;;;41.40;25.35;;;;;;;;;;5032555;28;20077;-63
2023/05/10 01:57:21;;;;;;;28.17;23.58;;;;;;;;;;5044995;28;20556;-63
2023/05/10 01:59:47;;;;;;;25.45;22.58;;;;;;;;;;5041067;28;20028;-62
2023/05/10 02:02:14;;;;;;;28.65;23.08;;;;;;;;;;5043129;28;20029;-63
2023/05/10 02:04:40;;;;;;;25.67;20.75;;;;;;;;;;5037989;28;20028;-64
2023/05/10 02:07:06;;;;;;;26.67;21.27;;;;;;;;;;5028108;28;20806;-63
2023/05/10 02:09:33;;;;;;;26.00;20.10;;;;;;;;;;5043138;28;20024;-65
2023/05/10 02:11:59;;;;;;;25.92;20.45;;;;;;;;;;5046971;28;20366;-63
2023/05/10 02:14:25;;;;;;;29.65;21.42;;;;;;;;;;5048045;28;20074;-65
2023/05/10 02:16:51;;;;;;;23.98;20.52;;;;;;;;;;5044593;28;20159;-62
2023/05/10 02:19:18;;;;;;;29.60;20.70;;;;;;;;;;5047504;28;20572;-63
2023/05/10 02:21:44;;;;;;;28.17;20.05;;;;;;;;;;5047226;28;20063;-63
2023/05/10 02:24:10;;;;;;;28.45;22.13;;;;;;;;;;5037817;28;20913;-63
2023/05/10 02:26:36;;;;;;;29.48;21.38;;;;;;;;;;5042439;28;20078;-63
2023/05/10 02:29:05;;;;;;;25.42;20.63;;;;;;;;;;5037848;28;20879;-66
2023/05/10 02:31:32;;;;;;;30.23;20.95;;;;;;;;;;5044627;28;20016;-63
2023/05/10 02:33:58;;;;;;;30.38;21.85;;;;;;;;;;5038286;28;20065;-64
2023/05/10 02:36:24;;;;;;;35.50;22.98;;;;;;;;;;5047028;28;20020;-63
2023/05/10 02:38:50;;;;;;;32.20;22.10;;;;;;;;;;5045314;28;20144;-63
2023/05/10 02:41:16;;;;;;;31.85;19.50;;;;;;;;;;5046359;28;20031;-63
2023/05/10 02:43:41;;;;;;;42.67;23.48;;;;;;;;;;5047010;28;20227;-64
2023/05/10 02:46:07;;;;;;;30.65;20.15;;;;;;;;;;5046627;28;20057;-63
2023/05/10 02:48:32;;;;;;;33.70;21.25;;;;;;;;;;5045098;28;20012;-64
2023/05/10 02:51:02;;;;;;;34.03;20.58;;;;;;;;;;5045256;28;20142;-63
2023/05/10 02:53:31;;;;;;;30.20;21.05;;;;;;;;;;5046880;28;20019;-64
2023/05/10 02:55:58;;;;;;;40.28;22.77;;;;;;;;;;5039728;28;20041;-63
2023/05/10 02:58:23;;;;;;;34.88;23.50;;;;;;;;;;5043794;28;20869;-64
2023/05/10 03:00:49;;;;;;;29.33;21.30;;;;;;;;;;5046679;28;20089;-64
2023/05/10 03:03:14;;;;;;;36.03;23.08;;;;;;;;;;5045033;28;20028;-63
2023/05/10 03:05:39;;;;;;;33.28;23.48;;;;;;;;;;5041653;28;21534;-64
2023/05/10 03:08:05;;;;;;;31.40;23.50;;;;;;;;;;5042396;28;20105;-63
2023/05/10 03:10:32;;;;;;;33.13;22.38;;;;;;;;;;5041093;28;20032;-64
2023/05/10 03:13:06;;;;;;;31.00;23.70;;;;;;;;;;5048974;28;20043;-64
2023/05/10 03:15:31;;;;;;;;;;;;;;;;;;5041131;28;20891;-64
2023/05/10 03:18:01;;;;;;;38.03;23.40;;;;;;;;;;5039337;28;20089;-64
2023/05/10 03:20:34;;;;;;;42.25;24.58;;;;;;;;;;5038953;28;20031;-65
2023/05/10 03:23:19;;;;;;;34.25;24.60;;;;;;;;;;5041712;28;20033;-64
2023/05/10 03:25:46;;;;;;;33.17;24.48;;;;;;;;;;5000845;28;20197;-65
2023/05/10 03:28:13;;;;;;;36.20;24.58;;;;;;;;;;5038399;28;20012;-65
2023/05/10 03:30:39;;;;;;;36.03;25.90;;;;;;;;;;5033431;28;20072;-64
2023/05/10 03:33:05;;;;;;;41.40;25.88;;;;;;;;;;5031389;28;20946;-64
2023/05/10 03:35:30;;;;;;;45.42;26.00;;;;;;;;;;5037151;28;20929;-64
2023/05/10 03:37:56;;;;;;;37.67;27.58;;;;;;;;;;5034661;28;20081;-64
2023/05/10 03:40:22;;;;;;;34.40;26.58;;;;;;;;;;5042989;28;20032;-67
2023/05/10 03:42:48;;;;;;;39.38;26.08;;;;;;;;;;5045745;28;20837;-64
2023/05/10 03:45:13;;;;;;;35.30;25.98;;;;;;;;;;5035787;28;20035;-64
2023/05/10 03:47:38;;;;;;;43.90;27.23;;;;;;;;;;5031049;28;21033;-66
2023/05/10 03:50:04;;;;;;;48.33;29.88;;;;;;;;;;5044692;28;20032;-65
2023/05/10 03:52:29;;;;;;;47.33;30.02;;;;;;;;;;5035862;28;20031;-65
2023/05/10 03:54:54;;;;;;;35.67;29.38;;;;;;;;;;5045382;28;20050;-65
2023/05/10 03:57:20;;;;;;;38.33;28.30;;;;;;;;;;5044017;28;21670;-64
2023/05/10 03:59:45;;;;;;;42.10;29.48;;;;;;;;;;5046435;28;20020;-64
2023/05/10 04:02:10;;;;;;;45.60;30.48;;;;;;;;;;5040889;28;20028;-64
2023/05/10 04:04:36;;;;;;;43.35;28.58;;;;;;;;;;5042525;28;20085;-64
2023/05/10 04:07:01;;;;;;;48.90;31.25;;;;;;;;;;5044637;28;20874;-64
2023/05/10 04:09:26;;;;;;;56.00;32.17;;;;;;;;;;5045261;28;20130;-66
2023/05/10 04:11:51;;;;;;;44.88;30.98;;;;;;;;;;5043975;28;20008;-64
2023/05/10 04:14:17;;;;;;;48.08;31.38;;;;;;;;;;5040488;28;20789;-64
2023/05/10 04:16:42;;;;;;;49.72;31.42;;;;;;;;;;5038082;28;20016;-64
2023/05/10 04:19:07;;;;;;;42.05;31.05;;;;;;;;;;5046088;28;20032;-65
2023/05/10 04:21:33;;;;;;;44.67;29.40;;;;;;;;;;5046314;28;20849;-65
2023/05/10 04:23:58;;;;;;;41.85;30.65;;;;;;;;;;5042669;28;20135;-65
2023/05/10 04:26:24;;;;;;;40.67;29.98;;;;;;;;;;5042030;28;20029;-65
2023/05/10 04:28:50;;;;;;;48.08;32.55;;;;;;;;;;5045839;28;20123;-65
2023/05/10 04:31:15;;;;;;;49.85;30.02;;;;;;;;;;5043397;28;20024;-65
2023/05/10 04:33:40;;;;;;;53.63;30.73;;;;;;;;;;5041330;28;20548;-64
2023/05/10 04:36:05;;;;;;;45.17;30.10;;;;;;;;;;5043948;28;20048;-64
2023/05/10 04:38:31;;;;;;;43.97;30.90;;;;;;;;;;5044440;28;20012;-65
2023/05/10 04:41:09;;;;;;;44.33;30.38;;;;;;;;;;5044197;28;20027;-65
2023/05/10 04:43:34;;;;;;;49.67;30.23;;;;;;;;;;5041853;28;20017;-65
2023/05/10 04:45:59;;;;;;;42.67;29.63;;;;;;;;;;5034421;28;20012;-64
2023/05/10 04:48:25;;;;;;;57.05;30.60;;;;;;;;;;5045244;28;20144;-65
2023/05/10 04:50:50;;;;;;;45.15;31.42;;;;;;;;;;5034382;28;20052;-64
2023/05/10 04:53:15;;;;;;;48.15;28.92;;;;;;;;;;5042084;28;20906;-65
2023/05/10 04:55:41;;;;;;;43.65;28.17;;;;;;;;;;5033515;28;20873;-64
2023/05/10 04:58:07;;;;;;;39.80;28.77;;;;;;;;;;5043064;28;20027;-65
2023/05/10 05:00:33;;;;;;;32.55;27.58;;;;;;;;;;5043875;28;20040;-65
2023/05/10 05:02:59;;;;;;;38.40;28.58;;;;;;;;;;5043461;28;20023;-65
2023/05/10 05:05:25;;;;;;;43.75;29.35;;;;;;;;;;5047128;28;20044;-64
2023/05/10 05:07:50;;;;;;;37.22;27.70;;;;;;;;;;5044645;28;20016;-64
2023/05/10 05:10:15;;;;;;;28.88;25.75;;;;;;;;;;5046545;28;20871;-65
2023/05/10 05:12:41;;;;;;;42.42;27.70;;;;;;;;;;5039972;28;21066;-65
2023/05/10 05:15:08;;;;;;;37.33;27.75;;;;;;;;;;5041950;28;20861;-65
2023/05/10 05:17:33;;;;;;;40.83;27.67;;;;;;;;;;5036280;28;20119;-65
2023/05/10 05:19:58;;;;;;;38.83;26.65;;;;;;;;;;5047253;28;20772;-65
2023/05/10 05:22:29;;;;;;;38.97;27.02;;;;;;;;;;5035991;28;20089;-65
2023/05/10 05:24:55;;;;;;;30.95;26.10;;;;;;;;;;5046735;28;20140;-66
2023/05/10 05:27:23;;;;;;;31.30;24.27;;;;;;;;;;5034191;28;20016;-66
2023/05/10 05:29:49;;;;;;;28.33;21.80;;;;;;;;;;5040173;28;20024;-66
2023/05/10 05:32:14;;;;;;;31.88;21.80;;;;;;;;;;5042155;28;20032;-66
2023/05/10 05:34:39;;;;;;;28.80;21.38;;;;;;;;;;5045918;28;20960;-66
2023/05/10 05:37:05;;;;;;;33.78;21.10;;;;;;;;;;5033649;28;20128;-64
2023/05/10 05:39:30;;;;;;;35.85;21.88;;;;;;;;;;5044429;28;20027;-66
2023/05/10 05:41:55;;;;;;;26.75;19.60;;;;;;;;;;5046218;28;20078;-66
2023/05/10 05:44:20;;;;;;;22.60;20.17;;;;;;;;;;5043461;28;20024;-67
2023/05/10 05:46:46;;;;;;;28.02;19.45;;;;;;;;;;5046668;28;20028;-67
2023/05/10 05:49:12;;;;;;;25.35;19.20;;;;;;;;;;5043733;28;20135;-67
2023/05/10 05:51:37;;;;;;;24.70;18.98;;;;;;;;;;5048404;28;20067;-66
2023/05/10 05:54:04;;;;;;;21.23;17.73;;;;;;;;;;5044085;28;20806;-67
2023/05/10 05:56:29;;;;;;;26.17;17.25;;;;;;;;;;5032884;28;20026;-67
2023/05/10 05:58:54;;;;;;;23.48;16.85;;;;;;;;;;5031651;28;20968;-67
2023/05/10 06:01:20;;;;;;;21.30;16.08;;;;;;;;;;5046553;28;20900;-67
2023/05/10 06:03:45;;;;;;;22.23;16.27;;;;;;;;;;5036449;28;20052;-68
2023/05/10 06:06:10;;;;;;;26.48;17.80;;;;;;;;;;5046476;28;20027;-66
2023/05/10 06:08:36;;;;;;;35.58;25.13;;;;;;;;;;5048071;28;20150;-66
2023/05/10 06:11:01;;;;;;;33.30;27.08;;;;;;;;;;5048030;28;20024;-70
2023/05/10 06:13:31;;;;;;;34.05;27.23;;;;;;;;;;5047870;28;20313;-69
2023/05/10 06:15:57;;;;;;;36.38;27.70;;;;;;;;;;5044347;28;20035;-69
2023/05/10 06:18:23;;;;;;;47.67;33.17;;;;;;;;;;5048619;28;20024;-67
2023/05/10 06:20:49;;;;;;;44.13;33.78;;;;;;;;;;5032766;28;20928;-67
2023/05/10 06:23:14;;;;;;;56.47;37.78;;;;;;;;;;5046457;28;20027;-66
2023/05/10 06:25:40;;;;;;;57.25;39.22;;;;;;;;;;5036032;28;20805;-68
2023/05/10 06:28:05;;;;;;;53.90;38.63;;;;;;;;;;5040492;28;20036;-67
2023/05/10 06:30:30;;;;;;;57.40;39.35;;;;;;;;;;5043342;28;20039;-67
2023/05/10 06:32:55;;;;;;;52.17;38.28;;;;;;;;;;5044950;28;20102;-67
2023/05/10 06:35:21;;;;;;;54.85;38.55;;;;;;;;;;5033535;28;20020;-67
2023/05/10 06:37:46;;;;;;;63.15;38.95;;;;;;;;;;5047925;28;20859;-67
2023/05/10 06:40:11;;;;;;;57.67;39.55;;;;;;;;;;5046537;28;20028;-67
2023/05/10 06:42:37;;;;;;;54.00;37.65;;;;;;;;;;5044622;28;20028;-66
2023/05/10 06:45:03;;;;;;;59.22;41.65;;;;;;;;;;5045326;28;20031;-67
2023/05/10 06:47:28;;;;;;;58.22;39.42;;;;;;;;;;5037694;28;20965;-67
2023/05/10 06:49:53;;;;;;;61.85;40.25;;;;;;;;;;5047823;28;20178;-67
2023/05/10 06:52:18;;;;;;;55.20;39.55;;;;;;;;;;5046739;28;20128;-67
2023/05/10 06:54:44;;;;;;;56.08;38.67;;;;;;;;;;5044399;28;20059;-66
2023/05/10 06:57:09;;;;;;;56.65;39.35;;;;;;;;;;5044940;28;20901;-67
2023/05/10 06:59:36;;;;;;;69.05;39.67;;;;;;;;;;5040867;28;20928;-66
2023/05/10 07:02:01;;;;;;;63.00;40.90;;;;;;;;;;5039172;28;20021;-66
2023/05/10 07:04:27;;;;;;;60.42;39.08;;;;;;;;;;5046751;28;20134;-66
2023/05/10 07:06:52;;;;;;;62.47;42.50;;;;;;;;;;5044475;28;20901;-66
2023/05/10 07:09:18;;;;;;;70.53;41.80;;;;;;;;;;5046264;28;20055;-66
2023/05/10 07:11:43;;;;;;;68.80;41.70;;;;;;;;;;5050384;28;20027;-66
2023/05/10 07:14:08;;;;;;;64.10;42.35;;;;;;;;;;5026818;28;20097;-66
2023/05/10 07:16:34;;;;;;;78.75;48.53;;;;;;;;;;5049709;28;20024;-66
2023/05/10 07:18:59;;;;;;;78.13;44.22;;;;;;;;;;5049660;28;20889;-66
2023/05/10 07:21:25;;;;;;;62.70;44.20;;;;;;;;;;5048714;28;20047;-64
2023/05/10 07:23:50;;;;;;;63.05;43.03;;;;;;;;;;5048163;28;20079;-64
2023/05/10 07:26:15;;;;;;;65.20;43.80;;;;;;;;;;5048021;28;20143;-63
2023/05/10 07:28:41;;;;;;;60.65;41.08;;;;;;;;;;5027969;28;20781;-64
2023/05/10 07:31:06;;;;;;;54.45;39.13;;;;;;;;;;5049892;28;20880;-64
2023/05/10 07:33:31;;;;;;;51.78;36.72;;;;;;;;;;5047597;28;20020;-63
2023/05/10 07:35:57;;;;;;;54.42;37.42;;;;;;;;;;5046176;28;20118;-64
2023/05/10 07:38:23;;;;;;;63.63;38.42;;;;;;;;;;5046488;28;20024;-66
2023/05/10 07:40:48;;;;;;;53.95;36.95;;;;;;;;;;5045182;28;20024;-66
2023/05/10 07:43:13;;;;;;;50.25;36.90;;;;;;;;;;5038965;28;20025;-66
2023/05/10 07:45:38;;;;;;;64.07;37.15;;;;;;;;;;5032762;28;20128;-66
2023/05/10 07:48:04;;;;;;;55.05;34.83;;;;;;;;;;5044790;28;20911;-66
2023/05/10 07:50:29;;;;;;;49.42;33.15;;;;;;;;;;5043786;28;20916;-65
2023/05/10 07:52:54;;;;;;;48.72;32.08;;;;;;;;;;5044790;28;20060;-66
2023/05/10 07:55:21;;;;;;;46.88;32.70;;;;;;;;;;5038390;28;20029;-65
2023/05/10 07:57:46;;;;;;;51.65;34.63;;;;;;;;;;5034599;28;20035;-65
2023/05/10 08:00:12;;;;;;;49.08;34.00;;;;;;;;;;5037390;28;20024;-65
2023/05/10 08:02:37;;;;;;;49.67;34.65;;;;;;;;;;5034779;28;20027;-66
2023/05/10 08:05:03;;;;;;;51.97;35.38;;;;;;;;;;5045410;28;20930;-66
2023/05/10 08:07:28;;;;;;;54.22;33.10;;;;;;;;;;5041568;28;20069;-67
2023/05/10 08:09:54;;;;;;;51.58;36.38;;;;;;;;;;5037047;28;20980;-66
2023/05/10 08:12:19;;;;;;;49.40;35.00;;;;;;;;;;5040907;28;20909;-66
2023/05/10 08:14:44;;;;;;;51.10;36.50;;;;;;;;;;5040517;28;20021;-66
2023/05/10 08:17:09;;;;;;;43.13;33.90;;;;;;;;;;5048077;28;20286;-66
2023/05/10 08:19:35;;;;;;;51.10;37.42;;;;;;;;;;5042201;28;20028;-66
2023/05/10 08:22:00;;;;;;;63.28;36.05;;;;;;;;;;5038645;28;20020;-67
2023/05/10 08:24:25;;;;;;;60.80;39.50;;;;;;;;;;5043051;28;20044;-66
2023/05/10 08:26:51;;;;;;;52.85;36.45;;;;;;;;;;5043553;28;20020;-65
2023/05/10 08:29:16;;;;;;;55.47;39.60;;;;;;;;;;5043700;28;20553;-63
2023/05/10 08:31:41;;;;;;;51.78;36.58;;;;;;;;;;5045705;28;21417;-65
2023/05/10 08:34:07;;;;;;;51.35;36.47;;;;;;;;;;5044130;28;20067;-66
2023/05/10 08:36:32;;;;;;;58.10;33.17;;;;;;;;;;5033584;28;20047;-66
2023/05/10 08:38:57;;;;;;;43.47;31.58;;;;;;;;;;5044106;28;20971;-66
2023/05/10 08:41:26;;;;;;;45.88;32.63;;;;;;;;;;5038014;28;20976;-66
2023/05/10 08:43:55;;;;;;;48.63;34.00;;;;;;;;;;5036086;28;20853;-66
2023/05/10 08:46:21;;;;;;;55.33;32.15;;;;;;;;;;5043481;28;20038;-65
2023/05/10 08:48:47;;;;;;;39.45;31.70;;;;;;;;;;5043917;28;20089;-66
2023/05/10 08:51:14;;;;;;;49.72;32.88;;;;;;;;;;5037907;28;20024;-65
2023/05/10 08:53:39;;;;;;;40.63;30.85;;;;;;;;;;5040056;28;20027;-65
2023/05/10 08:56:05;;;;;;;42.15;30.25;;;;;;;;;;5047104;28;20066;-65
2023/05/10 08:58:30;;;;;;;36.80;27.52;;;;;;;;;;5039080;28;20066;-67
2023/05/10 09:00:56;;;;;;;35.13;26.33;;;;;;;;;;5037127;28;20135;-65
2023/05/10 09:03:22;;;;;;;31.98;24.70;;;;;;;;;;5044438;28;20031;-64
2023/05/10 09:05:48;;;;;;;35.53;24.75;;;;;;;;;;5043969;28;20056;-64
2023/05/10 09:08:16;;;;;;;36.85;25.50;;;;;;;;;;5043607;28;20024;-65
2023/05/10 09:10:43;;;;;;;29.65;21.10;;;;;;;;;;5045151;28;20130;-65
2023/05/10 09:13:09;;;;;;;24.63;20.35;;;;;;;;;;5043709;28;20024;-64
2023/05/10 09:15:35;;;;;;;17.85;15.50;;;;;;;;;;5036119;28;20858;-65
2023/05/10 09:18:02;;;;;;;21.20;13.85;;;;;;;;;;5041066;28;20024;-65
2023/05/10 09:20:27;;;;;;;14.18;11.77;;;;;;;;;;5035205;28;20931;-65
2023/05/10 09:22:52;;;;;;;14.30;11.52;;;;;;;;;;5043723;28;20024;-65
2023/05/10 09:25:18;;;;;;;16.25;12.15;;;;;;;;;;5044267;28;20031;-65
2023/05/10 09:27:47;;;;;;;12.48;10.55;;;;;;;;;;5040580;28;20029;-64
2023/05/10 09:30:21;;;;;;;16.88;12.65;;;;;;;;;;5043216;28;20024;-65
2023/05/10 09:32:46;;;;;;;;;;;;;;;;;;5045509;28;20181;-64
2023/05/10 09:35:16;;;;;;;17.00;12.10;;;;;;;;;;5042174;28;20077;-64
2023/05/10 09:37:43;;;;;;;14.98;12.68;;;;;;;;;;5045272;28;20130;-64
2023/05/10 09:40:11;;;;;;;17.17;10.95;;;;;;;;;;5044137;28;20916;-65
2023/05/10 09:42:36;;;;;;;18.33;13.23;;;;;;;;;;5042559;28;20025;-65
2023/05/10 09:45:03;;;;;;;14.35;11.63;;;;;;;;;;5036968;28;20805;-65
2023/05/10 09:47:28;;;;;;;17.75;11.27;;;;;;;;;;5035963;28;20038;-65
2023/05/10 09:49:57;;;;;;;16.67;11.52;;;;;;;;;;5050655;28;20025;-65
2023/05/10 09:52:23;;;;;;;13.00;10.95;;;;;;;;;;5029029;28;20025;-65
2023/05/10 09:54:54;;;;;;;11.57;10.00;;;;;;;;;;5040638;28;20319;-65
2023/05/10 09:57:21;;;;;;;14.18;11.52;;;;;;;;;;5036573;28;20028;-65
2023/05/10 09:59:46;;;;;;;13.57;10.70;;;;;;;;;;5037779;28;20048;-65
2023/05/10 10:02:12;;;;;;;14.18;10.68;;;;;;;;;;5032192;28;20835;-65
2023/05/10 10:04:40;;;;;;;19.02;11.55;;;;;;;;;;5039850;28;20135;-64
2023/05/10 10:07:06;;;;;;;16.35;11.75;;;;;;;;;;5049134;28;20023;-66
2023/05/10 10:09:32;;;;;;;20.30;13.55;;;;;;;;;;5037439;28;20029;-65
2023/05/10 10:11:57;;;;;;;14.82;11.98;;;;;;;;;;5038879;28;20060;-65
2023/05/10 10:14:26;;;;;;;12.50;9.65;;;;;;;;;;5043050;28;20028;-65
2023/05/10 10:16:51;;;;;;;13.43;11.73;;;;;;;;;;5042971;28;20023;-64
2023/05/10 10:19:18;;;;;;;12.95;11.50;;;;;;;;;;5042340;28;20090;-65
2023/05/10 10:21:43;;;;;;;13.15;10.52;;;;;;;;;;5038086;28;20020;-64
2023/05/10 10:24:09;;;;;;;18.52;11.07;;;;;;;;;;5043228;28;20134;-64
2023/05/10 10:26:36;;;;;;;15.18;10.57;;;;;;;;;;5045331;28;20782;-64
2023/05/10 10:29:19;;;;;;;13.35;10.93;;;;;;;;;;5033674;28;20028;-64
2023/05/10 10:31:49;;;;;;;12.45;10.48;;;;;;;;;;5040722;28;20085;-66
2023/05/10 10:34:28;;;;;;;14.00;10.80;;;;;;;;;;5048104;28;20179;-65
2023/05/10 10:36:54;;;;;;;14.77;10.60;;;;;;;;;;5036620;28;20024;-65
2023/05/10 10:39:20;;;;;;;17.17;12.20;;;;;;;;;;5046458;28;20032;-65
2023/05/10 10:41:49;;;;;;;16.95;11.80;;;;;;;;;;5037491;28;20928;-65
2023/05/10 10:44:30;;;;;;;14.25;11.98;;;;;;;;;;5046668;28;20020;-66
2023/05/10 10:47:29;;;;;;;12.27;9.70;;;;;;;;;;5046092;28;20024;-64
2023/05/10 10:49:58;;;;;;;8.52;7.50;;;;;;;;;;5044315;28;20030;-65
2023/05/10 10:52:30;;;;;;;15.85;9.23;;;;;;;;;;5047307;28;20135;-65
2023/05/10 10:55:01;;;;;;;10.30;8.85;;;;;;;;;;5046187;28;20423;-64
2023/05/10 10:57:26;;;;;;;13.95;9.30;;;;;;;;;;5041516;28;20055;-64
2023/05/10 11:00:11;;;;;;;12.15;8.20;;;;;;;;;;5038017;28;20030;-64
2023/05/10 11:02:45;;;;;;;12.25;8.90;;;;;;;;;;5042877;28;20028;-64
2023/05/10 11:05:23;;;;;;;10.18;9.00;;;;;;;;;;5040268;28;20052;-65
2023/05/10 11:07:54;;;;;;;14.82;9.63;;;;;;;;;;5040838;28;20028;-64
2023/05/10 11:10:20;;;;;;;14.55;10.48;;;;;;;;;;5039267;28;20098;-64
2023/05/10 11:12:53;;;;;;;14.60;11.80;;;;;;;;;;5042249;28;20027;-64
2023/05/10 11:15:19;;;;;;;12.05;10.73;;;;;;;;;;5037448;28;20087;-65
2023/05/10 11:17:47;;;;;;;18.38;12.38;;;;;;;;;;5047369;28;20797;-65
2023/05/10 11:20:14;;;;;;;16.65;12.48;;;;;;;;;;5046175;28;20028;-64
2023/05/10 11:22:52;;;;;;;15.30;13.55;;;;;;;;;;5046920;28;20054;-65
2023/05/10 11:25:18;;;;;;;17.95;12.32;;;;;;;;;;5045670;28;20094;-64
2023/05/10 11:27:43;;;;;;;15.70;12.50;;;;;;;;;;5043886;28;20130;-63
2023/05/10 11:30:11;;;;;;;15.32;12.52;;;;;;;;;;5038994;28;20055;-65
2023/05/10 11:32:38;;;;;;;18.08;12.10;;;;;;;;;;5039752;28;20023;-64
2023/05/10 11:35:07;;;;;;;12.18;10.70;;;;;;;;;;5045565;28;20956;-64
2023/05/10 11:37:34;;;;;;;16.52;12.57;;;;;;;;;;5046985;28;20040;-65
2023/05/10 11:39:59;;;;;;;12.45;11.20;;;;;;;;;;5045823;28;20020;-65
2023/05/10 11:42:24;;;;;;;14.65;12.18;;;;;;;;;;5045028;28;20127;-65
2023/05/10 11:44:50;;;;;;;13.60;10.70;;;;;;;;;;5043836;28;20040;-64
2023/05/10 11:47:15;;;;;;;14.02;11.32;;;;;;;;;;5065714;28;20115;-64
2023/05/10 11:49:43;;;;;;;12.55;10.15;;;;;;;;;;5092012;28;20020;-64
2023/05/10 11:52:08;;;;;;;12.60;9.82;;;;;;;;;;5092030;28;20044;-63
2023/05/10 11:54:34;;;;;;;13.50;9.82;;;;;;;;;;5091729;28;20032;-63
2023/05/10 11:57:00;;;;;;;11.98;8.70;;;;;;;;;;5090717;28;20031;-64
2023/05/10 11:59:25;;;;;;;15.57;9.25;;;;;;;;;;5091915;28;20024;-65
2023/05/10 12:01:50;;;;;;;13.40;9.17;;;;;;;;;;5088052;28;20039;-64
2023/05/10 12:04:16;;;;;;;11.73;8.70;;;;;;;;;;5091979;28;20285;-63
2023/05/10 12:06:41;;;;;;;13.95;9.80;;;;;;;;;;5092282;28;20032;-64
2023/05/10 12:09:07;;;;;;;12.55;9.13;;;;;;;;;;5091794;28;20035;-64
2023/05/10 12:11:36;;;;;;;13.27;9.15;;;;;;;;;;5090702;28;20023;-64
2023/05/10 12:14:04;;;;;;;11.45;8.65;;;;;;;;;;5091914;28;20477;-64
2023/05/10 12:16:29;;;;;;;13.27;8.63;;;;;;;;;;5090057;28;20475;-64
2023/05/10 12:18:59;;;;;;;10.75;7.95;;;;;;;;;;5063033;28;20147;-65
2023/05/10 12:21:24;;;;;;;10.70;7.82;;;;;;;;;;5068345;28;20031;-64
2023/05/10 12:23:51;;;;;;;11.27;8.15;;;;;;;;;;5090489;28;20102;-64
2023/05/10 12:26:17;;;;;;;12.95;7.80;;;;;;;;;;5089933;28;20035;-65
2023/05/10 12:28:42;;;;;;;10.73;8.45;;;;;;;;;;5090937;28;20020;-64
2023/05/10 12:31:08;;;;;;;9.77;7.93;;;;;;;;;;5091588;28;20024;-65
2023/05/10 12:33:43;;;;;;;11.05;7.63;;;;;;;;;;5073681;28;20437;-65
2023/05/10 12:36:12;;;;;;;8.55;7.05;;;;;;;;;;5091691;28;20055;-65
2023/05/10 12:38:40;;;;;;;13.93;7.85;;;;;;;;;;5085599;28;20463;-65
2023/05/10 12:41:09;;;;;;;9.73;7.15;;;;;;;;;;5090084;28;20020;-65
2023/05/10 12:43:35;;;;;;;8.68;6.78;;;;;;;;;;5091834;28;20016;-65
2023/05/10 12:46:10;;;;;;;9.00;7.55;;;;;;;;;;5091445;28;20113;-65
2023/05/10 12:48:36;;;;;;;11.05;7.95;;;;;;;;;;5091421;28;20519;-65
2023/05/10 12:51:02;;;;;;;10.60;8.02;;;;;;;;;;5090440;28;20024;-65
2023/05/10 12:53:27;;;;;;;12.13;7.22;;;;;;;;;;5090008;28;20063;-69
2023/05/10 12:55:53;;;;;;;13.82;7.25;;;;;;;;;;5090380;28;20155;-65
2023/05/10 12:58:18;;;;;;;12.90;7.40;;;;;;;;;;5090520;28;20110;-67
2023/05/10 13:00:44;;;;;;;10.20;7.72;;;;;;;;;;5090716;28;20023;-65
2023/05/10 13:03:10;;;;;;;7.22;6.07;;;;;;;;;;5090898;28;20016;-64
2023/05/10 13:05:35;;;;;;;8.65;5.93;;;;;;;;;;5091620;28;20028;-64
2023/05/10 13:08:00;;;;;;;8.07;6.25;;;;;;;;;;5089799;28;20016;-64
2023/05/10 13:10:26;;;;;;;8.30;5.70;;;;;;;;;;5089548;28;20024;-65
2023/05/10 13:12:51;;;;;;;10.68;6.43;;;;;;;;;;5091531;28;20031;-64
2023/05/10 13:15:16;;;;;;;7.97;6.43;;;;;;;;;;5090293;28;20386;-64
2023/05/10 13:17:42;;;;;;;6.68;4.95;;;;;;;;;;5090082;28;20024;-65
2023/05/10 13:20:09;;;;;;;8.23;5.38;;;;;;;;;;5089599;28;20034;-66
2023/05/10 13:22:34;;;;;;;6.45;5.47;;;;;;;;;;5091106;28;20030;-64
2023/05/10 13:24:59;;;;;;;9.68;5.55;;;;;;;;;;5090255;28;20019;-63
2023/05/10 13:27:24;;;;;;;12.25;5.75;;;;;;;;;;5090301;28;20043;-64
2023/05/10 13:29:50;;;;;;;7.90;5.83;;;;;;;;;;5090633;28;20475;-65
2023/05/10 13:32:15;;;;;;;8.33;5.50;;;;;;;;;;5090160;28;20289;-65
2023/05/10 13:34:40;;;;;;;10.37;5.27;;;;;;;;;;5090880;28;20289;-64
2023/05/10 13:37:05;;;;;;;7.18;5.40;;;;;;;;;;5090616;28;20278;-65
2023/05/10 13:39:34;;;;;;;6.68;4.72;;;;;;;;;;5089947;28;20069;-65
2023/05/10 13:41:59;;;;;;;6.95;4.93;;;;;;;;;;5077699;28;20135;-65
2023/05/10 13:44:24;;;;;;;7.10;5.30;;;;;;;;;;5044155;28;20828;-65
2023/05/10 13:46:50;;;;;;;7.70;4.57;;;;;;;;;;5035967;28;20182;-65
2023/05/10 13:49:15;;;;;;;11.80;5.03;;;;;;;;;;5044573;28;20047;-65
2023/05/10 13:51:42;;;;;;;7.75;4.57;;;;;;;;;;5040601;28;20803;-64
2023/05/10 13:54:07;;;;;;;6.07;3.92;;;;;;;;;;5089248;28;20106;-65
2023/05/10 13:56:33;;;;;;;6.13;4.30;;;;;;;;;;5090419;28;20107;-65
2023/05/10 13:58:58;;;;;;;9.32;4.10;;;;;;;;;;5090078;28;20131;-65
2023/05/10 14:01:23;;;;;;;6.70;3.90;;;;;;;;;;5086784;28;20070;-65
2023/05/10 14:03:49;;;;;;;9.55;4.22;;;;;;;;;;5080269;28;20448;-65
2023/05/10 14:06:14;;;;;;;6.47;4.13;;;;;;;;;;5093218;28;20069;-65
2023/05/10 14:08:40;;;;;;;9.48;4.43;;;;;;;;;;5092915;28;20299;-65
2023/05/10 14:11:05;;;;;;;9.63;4.45;;;;;;;;;;5094478;28;20581;-65
2023/05/10 14:13:30;;;;;;;5.95;4.50;;;;;;;;;;5093654;28;20024;-66
2023/05/10 14:15:56;;;;;;;9.02;5.22;;;;;;;;;;5093827;28;20028;-65
2023/05/10 14:18:21;;;;;;;7.55;4.63;;;;;;;;;;5093796;28;20103;-65